createdAt,value
2022-08-02T00:02:10.213Z,21.54
2022-08-02T00:07:12.523Z,21.48
2022-08-02T00:12:14.470Z,21.46
2022-08-02T00:17:16.451Z,21.45
2022-08-02T00:22:18.505Z,21.43
2022-08-02T00:27:20.516Z,21.39
2022-08-02T00:32:23.388Z,21.30
2022-08-02T00:37:25.272Z,21.23
2022-08-02T00:42:27.198Z,21.16
2022-08-02T00:47:29.170Z,21.11
2022-08-02T00:52:30.949Z,21.07
2022-08-02T00:57:32.757Z,21.03
2022-08-02T01:02:34.698Z,20.95
2022-08-02T01:07:36.696Z,20.88
2022-08-02T01:12:38.539Z,20.85
2022-08-02T01:17:49.416Z,20.81
2022-08-02T01:23:09.243Z,20.78
2022-08-02T01:28:35.247Z,20.75
2022-08-02T01:34:04.406Z,20.71
2022-08-02T01:39:11.885Z,20.68
2022-08-02T01:44:32.679Z,20.65
2022-08-02T01:49:37.973Z,20.62
2022-08-02T01:54:43.119Z,20.62
2022-08-02T01:59:47.037Z,20.54
2022-08-02T02:04:51.912Z,20.48
2022-08-02T02:09:55.921Z,20.45
2022-08-02T02:15:00.542Z,20.40
2022-08-02T02:20:04.570Z,20.34
2022-08-02T02:25:08.967Z,20.31
2022-08-02T02:30:14.153Z,20.27
2022-08-02T02:35:19.694Z,20.24
2022-08-02T02:40:23.657Z,20.17
2022-08-02T02:45:27.066Z,20.13
2022-08-02T02:50:30.895Z,20.10
2022-08-02T02:55:33.258Z,20.07
2022-08-02T03:00:54.136Z,20.03
2022-08-02T03:05:56.211Z,19.98
2022-08-02T03:10:58.583Z,19.95
2022-08-02T03:16:03.726Z,19.91
2022-08-02T03:21:09.505Z,19.87
2022-08-02T03:26:12.064Z,19.85
2022-08-02T03:31:13.961Z,19.82
2022-08-02T03:36:20.036Z,19.78
2022-08-02T03:41:24.152Z,19.71
2022-08-02T03:46:26.926Z,19.68
2022-08-02T03:51:29.142Z,19.65
2022-08-02T03:56:32.334Z,19.67
2022-08-02T04:01:34.430Z,19.68
2022-08-02T04:06:39.982Z,19.70
2022-08-02T04:11:43.606Z,19.76
2022-08-02T04:16:52.705Z,19.84
2022-08-02T04:21:58.002Z,19.92
2022-08-02T04:27:19.128Z,19.97
2022-08-02T04:32:24.884Z,20.01
2022-08-02T04:37:27.727Z,20.05
2022-08-02T04:42:29.673Z,20.03
2022-08-02T04:48:02.507Z,20.06
2022-08-02T04:52:53.677Z,20.10
2022-08-02T04:57:55.992Z,20.10
2022-08-02T05:02:59.186Z,20.11
2022-08-02T05:08:01.328Z,20.08
2022-08-02T05:13:05.476Z,20.05
2022-08-02T05:18:07.753Z,20.10
2022-08-02T05:23:09.571Z,20.14
2022-08-02T05:28:14.533Z,20.19
2022-08-02T05:33:16.418Z,20.27
2022-08-02T05:38:18.590Z,20.36
2022-08-02T05:43:28.002Z,20.45
2022-08-02T05:48:32.173Z,20.53
2022-08-02T05:53:50.864Z,20.59
2022-08-02T05:59:27.902Z,20.73
2022-08-02T06:04:54.609Z,20.94
2022-08-02T06:09:58.185Z,21.01
2022-08-02T06:15:00.186Z,21.00
2022-08-02T06:20:03.212Z,20.98
2022-08-02T06:25:48.558Z,21.15
2022-08-02T06:30:30.095Z,21.41
2022-08-02T06:36:01.277Z,21.62
2022-08-02T06:41:07.109Z,21.84
2022-08-02T06:46:57.186Z,22.03
2022-08-02T06:51:36.797Z,22.10
2022-08-02T06:56:44.769Z,22.16
2022-08-02T07:01:53.163Z,22.35
2022-08-02T07:06:57.118Z,22.59
2022-08-02T07:11:59.351Z,22.75
2022-08-02T07:17:03.500Z,22.79
2022-08-02T07:22:05.904Z,22.85
2022-08-02T07:27:12.279Z,22.80
2022-08-02T07:32:20.296Z,22.82
2022-08-02T07:37:54.090Z,22.91
2022-08-02T07:42:48.834Z,22.93
2022-08-02T07:47:51.853Z,22.92
2022-08-02T07:52:57.804Z,23.05
2022-08-02T07:58:00.569Z,23.24
2022-08-02T08:03:02.536Z,23.44
2022-08-02T08:08:06.139Z,23.51
2022-08-02T08:13:08.401Z,23.52
2022-08-02T08:18:10.200Z,23.59
2022-08-02T08:23:14.624Z,23.82
2022-08-02T08:28:16.699Z,24.10
2022-08-02T08:33:18.750Z,24.25
2022-08-02T08:38:21.332Z,24.45
2022-08-02T08:43:25.070Z,24.70
2022-08-02T08:48:31.122Z,24.85
2022-08-02T08:53:40.248Z,25.05
2022-08-02T08:58:47.849Z,24.98
2022-08-02T09:03:50.227Z,24.78
2022-08-02T09:08:52.794Z,24.92
2022-08-02T09:14:00.401Z,25.28
2022-08-02T09:19:24.478Z,25.64
2022-08-02T09:24:26.679Z,25.73
2022-08-02T09:29:48.569Z,25.59
2022-08-02T09:34:58.165Z,25.45
2022-08-02T09:40:00.844Z,25.28
2022-08-02T09:45:04.282Z,25.31
2022-08-02T09:50:06.551Z,25.68
2022-08-02T09:55:09.730Z,26.03
2022-08-02T10:00:14.325Z,26.24
2022-08-02T10:05:21.640Z,26.44
2022-08-02T10:10:24.702Z,26.52
2022-08-02T10:15:27.613Z,26.54
2022-08-02T10:20:36.337Z,26.31
2022-08-02T10:25:39.727Z,26.50
2022-08-02T10:30:46.263Z,26.36
2022-08-02T10:36:04.639Z,26.07
2022-08-02T10:41:11.845Z,26.17
2022-08-02T10:46:36.930Z,26.18
2022-08-02T10:51:57.422Z,26.43
2022-08-02T10:57:01.626Z,26.52
2022-08-02T11:02:07.157Z,26.54
2022-08-02T11:07:17.246Z,26.44
2022-08-02T11:12:21.178Z,26.32
2022-08-02T11:17:23.439Z,26.63
2022-08-02T11:22:26.059Z,26.83
2022-08-02T11:27:29.860Z,27.00
2022-08-02T11:32:33.070Z,27.19
2022-08-02T11:37:41.131Z,27.37
2022-08-02T11:42:48.248Z,27.29
2022-08-02T11:47:51.419Z,27.36
2022-08-02T11:52:56.462Z,27.49
2022-08-02T11:58:05.652Z,27.42
2022-08-02T12:03:08.642Z,27.12
2022-08-02T12:08:10.686Z,27.05
2022-08-02T12:13:13.733Z,27.34
2022-08-02T12:18:37.024Z,27.48
2022-08-02T12:23:59.487Z,27.63
2022-08-02T12:29:02.985Z,27.72
2022-08-02T12:34:18.203Z,27.74
2022-08-02T12:39:20.123Z,27.59
2022-08-02T12:44:22.343Z,27.54
2022-08-02T12:49:24.617Z,27.42
2022-08-02T12:54:40.292Z,27.49
2022-08-02T12:59:45.635Z,27.63
2022-08-02T13:04:50.467Z,27.72
2022-08-02T13:10:02.644Z,27.53
2022-08-02T13:15:12.276Z,27.29
2022-08-02T13:20:30.769Z,27.17
2022-08-02T13:25:33.902Z,27.12
2022-08-02T13:30:35.761Z,27.12
2022-08-02T13:35:37.727Z,27.16
2022-08-02T13:41:04.818Z,27.17
2022-08-02T13:46:08.121Z,27.17
2022-08-02T13:51:12.126Z,27.19
2022-08-02T13:56:16.941Z,27.20
2022-08-02T14:01:19.201Z,27.14
2022-08-02T14:06:24.408Z,27.21
2022-08-02T14:11:27.132Z,27.28
2022-08-02T14:16:33.117Z,27.45
2022-08-02T14:21:46.556Z,27.69
2022-08-02T14:26:50.333Z,27.97
2022-08-02T14:31:52.291Z,27.90
2022-08-02T14:36:55.387Z,27.88
2022-08-02T14:41:59.918Z,27.93
2022-08-02T14:47:13.733Z,27.97
2022-08-02T14:52:16.215Z,27.80
2022-08-02T14:57:19.285Z,27.63
2022-08-02T15:02:21.334Z,27.51
2022-08-02T15:07:23.456Z,27.43
2022-08-02T15:12:25.410Z,27.39
2022-08-02T15:17:27.436Z,27.50
2022-08-02T15:22:29.320Z,27.58
2022-08-02T15:27:33.303Z,27.60
2022-08-02T15:32:52.946Z,27.55
2022-08-02T15:37:56.242Z,27.48
2022-08-02T15:42:58.409Z,27.44
2022-08-02T15:48:00.681Z,27.40
2022-08-02T15:53:02.804Z,27.40
2022-08-02T15:58:05.858Z,27.41
2022-08-02T16:03:08.016Z,27.45
2022-08-02T16:08:13.092Z,27.49
2022-08-02T16:13:34.362Z,27.54
2022-08-02T16:18:38.600Z,27.57
2022-08-02T16:23:58.684Z,27.62
2022-08-02T16:29:03.946Z,27.63
2022-08-02T16:34:06.330Z,27.58
2022-08-02T16:39:08.273Z,27.57
2022-08-02T16:44:11.605Z,27.58
2022-08-02T16:50:07.223Z,27.56
2022-08-02T16:54:38.373Z,27.55
2022-08-02T16:59:42.673Z,27.55
2022-08-02T17:04:47.382Z,27.53
2022-08-02T17:10:02.166Z,27.50
2022-08-02T17:16:01.694Z,27.48
2022-08-02T17:20:31.499Z,27.42
2022-08-02T17:25:34.466Z,27.38
2022-08-02T17:30:39.618Z,27.33
2022-08-02T17:35:52.112Z,27.28
2022-08-02T17:40:56.212Z,27.23
2022-08-02T17:46:00.222Z,27.17
2022-08-02T17:51:04.423Z,27.11
2022-08-02T17:56:06.428Z,27.05
2022-08-02T18:01:23.480Z,26.98
2022-08-02T18:06:26.626Z,26.91
2022-08-02T18:11:52.283Z,26.82
2022-08-02T18:16:52.134Z,26.71
2022-08-02T18:21:55.317Z,26.61
2022-08-02T18:26:57.423Z,26.50
2022-08-02T18:31:59.387Z,26.41
2022-08-02T18:37:01.369Z,26.32
2022-08-02T18:42:03.551Z,26.22
2022-08-02T18:47:05.712Z,26.12
2022-08-02T18:52:08.753Z,26.03
2022-08-02T18:58:01.847Z,25.95
2022-08-02T19:02:34.787Z,25.85
2022-08-02T19:07:50.724Z,25.76
2022-08-02T19:12:54.828Z,25.67
2022-08-02T19:17:58.197Z,25.57
2022-08-02T19:23:03.342Z,25.47
2022-08-02T19:28:08.488Z,25.37
2022-08-02T19:33:10.768Z,25.28
2022-08-02T19:38:27.460Z,25.21
2022-08-02T19:44:23.386Z,25.13
2022-08-02T19:48:52.263Z,25.06
2022-08-02T19:53:55.673Z,25.01
2022-08-02T19:59:13.253Z,24.97
2022-08-02T20:04:18.775Z,24.93
2022-08-02T20:09:33.196Z,24.89
2022-08-02T20:14:35.563Z,24.88
2022-08-02T20:19:42.107Z,24.83
2022-08-02T20:24:50.775Z,24.80
2022-08-02T20:29:53.386Z,24.74
2022-08-02T20:34:55.672Z,24.70
2022-08-02T20:39:57.601Z,24.65
2022-08-02T20:44:59.474Z,24.57
2022-08-02T20:50:20.307Z,24.52
2022-08-02T20:55:33.389Z,24.46
2022-08-02T21:00:35.733Z,24.44
2022-08-02T21:05:43.907Z,24.45
2022-08-02T21:10:57.733Z,24.41
2022-08-02T21:16:00.679Z,24.39
2022-08-02T21:21:04.265Z,24.34
2022-08-02T21:26:09.096Z,24.30
2022-08-02T21:31:13.526Z,24.25
2022-08-02T21:36:15.989Z,24.20
2022-08-02T21:41:19.726Z,24.15
2022-08-02T21:46:21.935Z,24.09
2022-08-02T21:51:26.914Z,24.01
2022-08-02T21:56:30.963Z,23.93
2022-08-02T22:01:34.227Z,23.87
2022-08-02T22:06:36.491Z,23.83
2022-08-02T22:11:38.497Z,23.79
2022-08-02T22:16:40.465Z,23.73
2022-08-02T22:21:46.901Z,23.66
2022-08-02T22:26:58.137Z,23.60
2022-08-02T22:32:00.394Z,23.54
2022-08-02T22:37:07.253Z,23.50
2022-08-02T22:42:09.851Z,23.47
2022-08-02T22:47:14.998Z,23.42
2022-08-02T22:52:20.231Z,23.38
2022-08-02T22:57:30.378Z,23.33
2022-08-02T23:02:33.498Z,23.30
2022-08-02T23:07:36.345Z,23.29
2022-08-02T23:12:41.256Z,23.25
2022-08-02T23:18:01.541Z,23.23
2022-08-02T23:23:03.509Z,23.18
2022-08-02T23:28:14.075Z,23.15
2022-08-02T23:33:16.502Z,23.14
2022-08-02T23:38:18.541Z,23.11
2022-08-02T23:43:20.389Z,23.06
2022-08-02T23:48:22.395Z,23.03
2022-08-02T23:53:24.240Z,23.01
2022-08-02T23:58:29.343Z,22.99
